Pagina principale
METAR-TAF:

METAR-TAF

Aeroporti :

RAF Ascension Island

Georgetown, Ascensione

latitudine: 07-58S, longitudine: 014-24W, altezza: 86 m

METAR: mancante

Ora: 13:05 (13:05 UTC)

Previsione

Il bollettino è stato emesso 2 ore e 25 minuti fa, alle 10:40 UTC
Previsione valida dal 17 alle 12 UTC al 18 alle 06 UTC
Vento 14 kt da sud-est
Visibilità 10 km o più
Poco nuvoloso ad un'altezza di 2000 ft
Nuvoloso ad un'altezza di 4500 ft
Probabilità 40% :
Temporaneamente
dal 17 alle 12 UTC al 18 alle 06 UTC
Visibilità: 6000 m
Nubi sparse ad un'altezza di 1200 ft
Nuvoloso ad un'altezza di 2200 ft
rovesci di pioggia

TAF: FHAW 171040Z 1712/1806 13014KT 9999 FEW020 BKN045 PROB40 TEMPO 1712/1806 6000 -SHRA SCT012 BKN022

Osservazioni e previsioni meteorologiche di più di 4000 aeroporti (messaggi METAR e TAF).

Le stazioni disponibili sono rappresentate dai dischi gialli e rossi sulla carta.

Puntare il mouse per vedere il nome della stazione.

Clicca sopra per visualizzare le osservazioni e previsioni meteorologiche.

Per cambiare la mappa : fare clic sui pulsanti verdi con una croce nera per ingrandire, il pulsante verde con un trattino per diminuire, o sulla freccia verde per le mappe adiacenti.


METAR-TAF: